Terminal Aerodrome Forecast
Issued by NWS

Home | Current Version | Previous Version | Text Only | Print | Product List | Glossary On
Versions: 1 2 3 4 5 6 7 8 9 10 11 12 13 14 15
362
FTUS42 KTBW 260531
TAFRSW
TAF
KRSW 260531Z 2606/2706 VRB03KT P6SM FEW025 SCT250
     FM261400 VRB03KT P6SM FEW025 SCT250
     FM261600 09004KT P6SM SCT035 SCT250
     FM261800 26006KT P6SM VCTS BKN040CB
     FM262200 VRB04KT P6SM VCTS SCT040CB BKN100
     FM270300 VRB03KT P6SM FEW040 SCT100 BKN250=

USA.gov is the U.S. government's official web portal to all federal, state and local government web resources and services.